Sunday, January 21, 2018, 3:35 PM EST
Back to Local

KMIV, Millville Municipal Airport

Location: Millville, NJ, United States Lat: 39.367
Local Time: 3:35 PM EST (20:35 GMT) Lon: -75.083
Time Zone: US/Eastern Elev: 85 ft

Show me the last for .
Show Coded

Time T Td Feel RH Dir Speed Gust Alt SLP Vis Weather Sky Remarks
2018-01-21 14:54 52 39 - 61 200° 5 - 30.16 30.16 10 OVC048 None
2018-01-21 13:54 53 39 - 58 320° 5 - 30.16 30.16 10 OVC044 None
2018-01-21 12:54 52 39 - 61 290° 6 - 30.17 30.17 10 OVC036 6-hr Min Temp (1pm): 25.0°F
6-hr Max Temp (1pm): 52.0°F
2018-01-21 11:54 51 39 - 63 320° 8 - 30.19 30.19 10 OVC030 None
2018-01-21 10:54 52 38 - 58 340° 8 - 30.22 30.21 10 BKN034 BKN041 None
2018-01-21 09:54 46 37 45 70 Variable 3 - 30.21 30.21 10 OVC031 None
2018-01-21 08:54 38 34 - 85 - Calm - 30.20 30.20 10 BKN034 None
2018-01-21 07:54 27 26 - 96 - Calm - 30.19 30.19 10 CLR None
2018-01-21 06:54 25 23 - 92 - Calm - 30.18 30.18 10 CLR 6-hr Min Temp (7am): 23.0°F
6-hr Max Temp (7am): 28.9°F
2018-01-21 05:54 25 23 - 92 - Calm - 30.15 30.15 10 CLR None
2018-01-21 04:54 25 23 - 92 - Calm - 30.14 30.14 10 CLR None
2018-01-21 03:54 25 23 - 92 - Calm - 30.12 30.12 10 CLR None
2018-01-21 02:54 26 24 - 92 - Calm - 30.12 30.12 10 CLR None
2018-01-21 01:54 26 24 21 92 270° 5 - 30.10 30.10 10 CLR None
2018-01-21 00:54 29 26 24 88 150° 5 - 30.09 30.09 10 CLR 6-hr Min Temp (1am): 26.1°F
6-hr Max Temp (1am): 33.1°F
2018-01-20 23:54 26 25 - 95 - Calm - 30.09 30.09 10 CLR 24-hr Min Temp (12am): 21.9°F
24-hr Max Temp (12am): 55.9°F
2018-01-20 22:54 27 25 23 92 260° 3 - 30.08 30.08 10 CLR None
2018-01-20 21:54 27 25 - 92 - Calm - 30.07 30.07 10 CLR None
2018-01-20 20:54 27 25 - 92 - Calm - 30.06 30.06 10 CLR None
2018-01-20 19:54 31 27 - 85 - Calm - 30.05 30.05 10 CLR None
2018-01-20 18:54 31 27 - 85 - Calm - 30.03 30.03 10 CLR 6-hr Min Temp (7pm): 30.9°F
6-hr Max Temp (7pm): 55.9°F
2018-01-20 17:54 36 28 - 72 - Calm - 30.00 30.00 10 CLR None
2018-01-20 16:54 48 31 45 51 250° 7 - 29.98 29.98 10 CLR None
2018-01-20 15:54 54 31 - 41 260° 12 - 29.96 29.96 10 CLR None

Support USWX by starting your Amazon purchase here.